Time;durP1;ratioP1;P1;durP2;ratioP2;P2;SDS_P1;SDS_P2;PMS_P1;PMS_P2;Temp;Humidity;BMP_temperature;BMP_pressure;BME280_temperature;BME280_humidity;BME280_pressure;Samples;Min_cycle;Max_cycle;Signal;HPM_P1;HPM_P2
2024/01/10 00:01:47;;;;;;;;;;;;;;;-3.73;67.18;103202.47;5026315;28;20155;-75
2024/01/10 00:04:13;;;;;;;;;;;;;;;-3.58;70.12;103194.75;5021631;28;19917;-76
2024/01/10 00:06:38;;;;;;;;;;;;;;;-3.59;69.01;103192.97;5026282;28;19920;-76
2024/01/10 00:09:04;;;;;;;;;;;;;;;-3.60;69.20;103187.75;5025648;28;19944;-76
2024/01/10 00:11:29;;;;;;;;;;;;;;;-3.69;68.58;103183.91;5022900;28;19914;-75
2024/01/10 00:13:59;;;;;;;;;;;;;;;-3.67;69.18;103184.88;5024227;28;20221;-76
2024/01/10 00:16:25;;;;;;;;;;;;;;;-3.63;69.96;103180.78;5024849;28;20186;-76
2024/01/10 00:18:50;;;;;;;;;;;;;;;-3.73;69.30;103181.06;5025056;28;19996;-76
2024/01/10 00:21:15;;;;;;;;;;;;;;;-3.74;69.63;103182.75;5025228;28;19917;-75
2024/01/10 00:23:41;;;;;;;;;;;;;;;-3.71;70.34;103176.91;5026993;28;19917;-76
2024/01/10 00:26:06;;;;;;;;;;;;;;;-3.78;70.63;103180.84;5026829;28;19920;-75
2024/01/10 00:28:31;;;;;;;;;;;;;;;-3.69;71.76;103175.34;5022172;28;19980;-75
2024/01/10 00:30:57;;;;;;;;;;;;;;;-3.69;71.91;103177.91;5016108;28;19959;-75
2024/01/10 00:33:22;;;;;;;;;;;;;;;-3.64;71.94;103183.28;5027680;28;19916;-75
2024/01/10 00:35:47;;;;;;;;;;;;;;;-3.88;71.55;103181.97;5036045;28;19932;-76
2024/01/10 00:38:13;;;;;;;;;;;;;;;-3.80;72.19;103173.84;5030397;28;19920;-75
2024/01/10 00:40:38;;;;;;;;;;;;;;;-3.78;72.38;103177.38;5016107;28;20001;-75
2024/01/10 00:43:03;;;;;;;;;;;;;;;-3.80;72.63;103171.28;5026283;28;19912;-75
2024/01/10 00:45:29;;;;;;;;;;;;;;;-3.74;72.39;103172.53;5035324;28;19992;-75
2024/01/10 00:47:54;;;;;;;;;;;;;;;-3.81;72.59;103174.66;5026763;28;19917;-75
2024/01/10 00:50:19;;;;;;;;;;;;;;;-3.92;72.87;103171.50;5035493;28;19944;-75
2024/01/10 00:52:45;;;;;;;;;;;;;;;-3.96;73.11;103170.44;5035304;28;19917;-75
2024/01/10 00:55:10;;;;;;;;;;;;;;;-3.96;73.60;103164.44;5035471;28;20007;-75
2024/01/10 00:57:38;;;;;;;;;;;;;;;-3.83;73.77;103163.44;5034716;28;19963;-76
2024/01/10 01:00:03;;;;;;;;;;;;;;;-3.83;73.69;103159.22;5035413;28;20204;-75
2024/01/10 01:02:29;;;;;;;;;;;;;;;-3.79;74.35;103161.13;5034545;28;19951;-76
2024/01/10 01:04:54;;;;;;;;;;;;;;;-3.84;74.15;103154.88;5034931;28;19972;-75
2024/01/10 01:07:19;;;;;;;;;;;;;;;-3.82;74.08;103155.88;5035149;28;20116;-75
2024/01/10 01:09:44;;;;;;;;;;;;;;;-3.71;75.03;103161.53;5035032;28;20199;-75
2024/01/10 01:12:09;;;;;;;;;;;;;;;-3.78;74.33;103155.22;5031828;28;19955;-75
2024/01/10 01:14:35;;;;;;;;;;;;;;;-3.77;74.88;103164.66;5034477;28;20256;-76
2024/01/10 01:17:00;;;;;;;;;;;;;;;-3.64;76.36;103162.78;5034256;28;19913;-75
2024/01/10 01:19:26;;;;;;;;;;;;;;;-3.81;74.92;103157.59;5033869;28;19959;-75
2024/01/10 01:21:51;;;;;;;;;;;;;;;-3.89;74.65;103153.75;5034834;28;19920;-75
2024/01/10 01:24:16;;;;;;;;;;;;;;;-3.89;75.40;103158.88;5034724;28;19916;-75
2024/01/10 01:26:41;;;;;;;;;;;;;;;-3.92;75.42;103163.81;5035235;28;19917;-75
2024/01/10 01:29:08;;;;;;;;;;;;;;;-3.86;75.72;103159.94;5049059;28;20131;-75
2024/01/10 01:31:33;;;;;;;;;;;;;;;-3.91;75.54;103148.53;5035991;28;19916;-75
2024/01/10 01:33:59;;;;;;;;;;;;;;;-3.84;76.30;103149.75;5033542;28;19936;-75
2024/01/10 01:36:24;;;;;;;;;;;;;;;-3.88;76.10;103158.94;5034250;28;20286;-75
2024/01/10 01:38:50;;;;;;;;;;;;;;;-3.96;75.75;103157.63;5033720;28;20294;-75
2024/01/10 01:41:15;;;;;;;;;;;;;;;-3.98;75.26;103158.34;5034822;28;19924;-75
2024/01/10 01:43:40;;;;;;;;;;;;;;;-4.07;75.49;103145.91;5034220;28;19913;-75
2024/01/10 01:46:06;;;;;;;;;;;;;;;-4.12;76.02;103163.56;5034727;28;19917;-75
2024/01/10 01:48:31;;;;;;;;;;;;;;;-4.00;77.04;103152.25;5029872;28;20176;-75
2024/01/10 01:50:59;;;;;;;;;;;;;;;-4.02;76.79;103151.28;5015021;28;19917;-75
2024/01/10 01:53:25;;;;;;;;;;;;;;;-4.13;76.42;103146.47;5022733;28;19948;-75
2024/01/10 01:55:50;;;;;;;;;;;;;;;-4.01;76.43;103148.81;5034125;28;19928;-75
2024/01/10 01:58:16;;;;;;;;;;;;;;;-4.06;76.64;103147.66;5033719;28;19913;-75
2024/01/10 02:00:41;;;;;;;;;;;;;;;-3.94;76.61;103145.81;5034405;28;19963;-75
2024/01/10 02:03:08;;;;;;;;;;;;;;;-3.93;76.28;103151.78;5039405;28;20147;-75
2024/01/10 02:05:34;;;;;;;;;;;;;;;-3.94;76.34;103144.94;5034921;28;19913;-75
2024/01/10 02:07:59;;;;;;;;;;;;;;;-3.98;75.86;103142.97;5032687;28;19917;-75
2024/01/10 02:10:24;;;;;;;;;;;;;;;-4.11;75.95;103141.41;5034077;28;20112;-75
2024/01/10 02:12:49;;;;;;;;;;;;;;;-4.07;76.16;103143.38;5030768;28;20258;-75
2024/01/10 02:15:15;;;;;;;;;;;;;;;-4.05;76.28;103134.97;5032112;28;19921;-75
2024/01/10 02:17:40;;;;;;;;;;;;;;;-4.12;76.33;103137.09;5034127;28;20250;-75
2024/01/10 02:20:09;;;;;;;;;;;;;;;-4.07;76.87;103140.81;5032405;28;19917;-75
2024/01/10 02:22:34;;;;;;;;;;;;;;;-4.12;76.99;103139.66;5015482;28;19914;-75
2024/01/10 02:24:59;;;;;;;;;;;;;;;-4.10;77.14;103141.50;5032321;28;20123;-75
2024/01/10 02:27:25;;;;;;;;;;;;;;;-4.11;76.63;103143.97;5034213;28;19935;-75
2024/01/10 02:29:50;;;;;;;;;;;;;;;-4.01;77.32;103146.25;5033323;28;19913;-75
2024/01/10 02:32:16;;;;;;;;;;;;;;;-4.05;76.98;103131.53;5034345;28;20004;-75
2024/01/10 02:34:41;;;;;;;;;;;;;;;-4.25;76.99;103133.84;5031059;28;19924;-75
2024/01/10 02:37:06;;;;;;;;;;;;;;;-4.19;77.54;103130.75;5034036;28;19917;-75
2024/01/10 02:39:31;;;;;;;;;;;;;;;-4.10;77.77;103121.00;5034325;28;19912;-75
2024/01/10 02:41:56;;;;;;;;;;;;;;;-4.13;77.68;103119.97;5038125;28;19952;-75
2024/01/10 02:44:23;;;;;;;;;;;;;;;-4.20;78.40;103122.97;5037775;28;19912;-75
2024/01/10 02:46:48;;;;;;;;;;;;;;;-4.06;79.09;103122.06;5036620;28;20183;-75
2024/01/10 02:49:13;;;;;;;;;;;;;;;-4.05;79.05;103113.59;5037602;28;19913;-75
2024/01/10 02:51:39;;;;;;;;;;;;;;;-4.14;78.64;103110.53;5037749;28;19950;-75
2024/01/10 02:54:04;;;;;;;;;;;;;;;-4.18;78.71;103112.03;5037302;28;19913;-75
2024/01/10 02:56:29;;;;;;;;;;;;;;;-4.12;78.95;103116.63;5025407;28;19913;-75
2024/01/10 02:58:54;;;;;;;;;;;;;;;-4.09;79.31;103112.56;5026243;28;20047;-75
2024/01/10 03:01:20;;;;;;;;;;;;;;;-4.03;79.51;103111.16;5027748;28;19988;-75
2024/01/10 03:03:45;;;;;;;;;;;;;;;-3.98;79.96;103115.72;5024624;28;19921;-75
2024/01/10 03:06:10;;;;;;;;;;;;;;;-3.96;79.70;103108.13;5021847;28;19925;-75
2024/01/10 03:08:35;;;;;;;;;;;;;;;-4.00;79.47;103112.19;5022977;28;19920;-75
2024/01/10 03:11:01;;;;;;;;;;;;;;;-4.02;79.63;103101.00;5025238;28;20086;-75
2024/01/10 03:13:26;;;;;;;;;;;;;;;-3.92;80.02;103102.38;5021228;28;20096;-75
2024/01/10 03:15:51;;;;;;;;;;;;;;;-3.98;79.76;103102.00;5035237;28;19951;-75
2024/01/10 03:18:16;;;;;;;;;;;;;;;-3.85;80.02;103101.91;5037030;28;19943;-75
2024/01/10 03:20:41;;;;;;;;;;;;;;;-3.89;80.39;103100.00;5037145;28;19956;-75
2024/01/10 03:23:07;;;;;;;;;;;;;;;-3.98;79.72;103096.88;5036800;28;20191;-75
2024/01/10 03:25:32;;;;;;;;;;;;;;;-4.06;79.51;103101.59;5036778;28;20173;-75
2024/01/10 03:27:57;;;;;;;;;;;;;;;-4.01;79.79;103104.44;5036406;28;19955;-75
2024/01/10 03:30:24;;;;;;;;;;;;;;;-4.05;79.94;103098.25;5036864;28;19921;-75
2024/01/10 03:32:49;;;;;;;;;;;;;;;-3.98;80.38;103096.88;5030951;28;19979;-75
2024/01/10 03:35:14;;;;;;;;;;;;;;;-4.09;80.15;103098.88;5036724;28;19924;-75
2024/01/10 03:37:40;;;;;;;;;;;;;;;-4.10;80.56;103103.09;5033777;28;19913;-75
2024/01/10 03:40:05;;;;;;;;;;;;;;;-3.99;81.23;103096.03;5036257;28;19917;-75
2024/01/10 03:42:31;;;;;;;;;;;;;;;-4.02;81.21;103082.16;5036325;28;19919;-75
2024/01/10 03:44:56;;;;;;;;;;;;;;;-4.04;80.89;103079.53;5034695;28;19917;-72
2024/01/10 03:47:21;;;;;;;;;;;;;;;-4.15;81.11;103089.16;5018786;28;20268;-72
2024/01/10 03:49:46;;;;;;;;;;;;;;;-4.20;81.06;103082.94;5029872;28;20218;-72
2024/01/10 03:52:11;;;;;;;;;;;;;;;-4.37;81.09;103086.19;5033491;28;19970;-72
2024/01/10 03:54:38;;;;;;;;;;;;;;;-4.45;81.59;103081.53;5036884;28;20135;-72
2024/01/10 03:57:04;;;;;;;;;;;;;;;-4.52;81.60;103079.41;5035844;28;19909;-75
2024/01/10 03:59:29;;;;;;;;;;;;;;;-4.43;81.78;103081.63;5026607;28;19975;-75
2024/01/10 04:01:54;;;;;;;;;;;;;;;-4.37;82.22;103066.63;5036614;28;20128;-75
2024/01/10 04:04:19;;;;;;;;;;;;;;;-4.51;82.07;103068.41;5043937;28;19954;-75
2024/01/10 04:06:46;;;;;;;;;;;;;;;-4.58;82.35;103073.97;5057170;28;20254;-75
2024/01/10 04:09:12;;;;;;;;;;;;;;;-4.65;82.46;103066.72;5036614;28;20231;-75
2024/01/10 04:11:38;;;;;;;;;;;;;;;-4.52;82.76;103063.19;5036751;28;19990;-75
2024/01/10 04:14:03;;;;;;;;;;;;;;;-4.53;82.45;103070.00;5035850;28;19948;-75
2024/01/10 04:16:29;;;;;;;;;;;;;;;-4.54;82.70;103063.09;5036605;28;19999;-75
2024/01/10 04:18:54;;;;;;;;;;;;;;;-4.68;82.38;103058.88;5028286;28;19921;-75
2024/01/10 04:21:19;;;;;;;;;;;;;;;-4.74;82.57;103054.28;5021964;28;20205;-75
2024/01/10 04:23:44;;;;;;;;;;;;;;;-4.65;82.83;103048.84;5020423;28;20144;-75
2024/01/10 04:26:10;;;;;;;;;;;;;;;-4.71;82.57;103054.47;5035855;28;19980;-75
2024/01/10 04:28:35;;;;;;;;;;;;;;;-4.68;82.75;103053.75;5031114;28;20154;-75
2024/01/10 04:31:00;;;;;;;;;;;;;;;-4.76;82.67;103050.78;5036061;28;19943;-76
2024/01/10 04:33:25;;;;;;;;;;;;;;;-4.56;83.29;103048.47;5033251;28;19916;-75
2024/01/10 04:35:51;;;;;;;;;;;;;;;-4.56;83.17;103045.94;5035608;28;20320;-75
2024/01/10 04:38:16;;;;;;;;;;;;;;;-4.63;82.93;103049.81;5034282;28;20251;-75
2024/01/10 04:40:41;;;;;;;;;;;;;;;-4.65;83.07;103044.59;5035971;28;20297;-75
2024/01/10 04:43:09;;;;;;;;;;;;;;;-4.66;82.99;103049.63;5019444;28;19944;-75
2024/01/10 04:45:35;;;;;;;;;;;;;;;-4.61;82.70;103045.66;5033734;28;19924;-75
2024/01/10 04:48:00;;;;;;;;;;;;;;;-4.49;83.07;103051.47;5035516;28;19917;-75
2024/01/10 04:50:25;;;;;;;;;;;;;;;-4.42;83.44;103045.03;5019812;28;19949;-75
2024/01/10 04:52:50;;;;;;;;;;;;;;;-4.41;82.69;103044.22;5014985;28;19921;-75
2024/01/10 04:55:16;;;;;;;;;;;;;;;-4.39;82.13;103051.97;5016192;28;19971;-75
2024/01/10 04:57:41;;;;;;;;;;;;;;;-4.35;82.04;103054.78;5015861;28;19920;-75
2024/01/10 05:00:06;;;;;;;;;;;;;;;-4.27;82.29;103052.69;5016473;28;20182;-75
2024/01/10 05:02:32;;;;;;;;;;;;;;;-4.39;81.82;103057.97;5015278;28;20086;-75
2024/01/10 05:04:58;;;;;;;;;;;;;;;-4.45;81.41;103055.94;5019899;28;19928;-75
2024/01/10 05:07:23;;;;;;;;;;;;;;;-4.41;81.36;103053.56;5035768;28;19919;-75
2024/01/10 05:09:48;;;;;;;;;;;;;;;-4.45;81.48;103049.97;5029408;28;19956;-75
2024/01/10 05:12:13;;;;;;;;;;;;;;;-4.54;80.67;103046.88;5015734;28;19955;-75
2024/01/10 05:14:39;;;;;;;;;;;;;;;-4.43;80.88;103050.94;5021291;28;19921;-75
2024/01/10 05:17:04;;;;;;;;;;;;;;;-4.37;81.23;103047.81;5035059;28;19952;-75
2024/01/10 05:19:29;;;;;;;;;;;;;;;-4.54;80.22;103046.88;5034490;28;19917;-75
2024/01/10 05:21:54;;;;;;;;;;;;;;;-4.59;80.17;103046.63;5035265;28;19917;-75
2024/01/10 05:24:20;;;;;;;;;;;;;;;-4.48;81.09;103035.31;5034810;28;19924;-75
2024/01/10 05:26:45;;;;;;;;;;;;;;;-4.47;81.20;103038.78;5017814;28;19917;-75
2024/01/10 05:29:10;;;;;;;;;;;;;;;-4.63;80.18;103040.44;5017249;28;19921;-75
2024/01/10 05:31:36;;;;;;;;;;;;;;;-4.52;80.53;103042.75;5034323;28;19916;-75
2024/01/10 05:34:01;;;;;;;;;;;;;;;-4.55;80.89;103042.56;5034602;28;20171;-75
2024/01/10 05:36:26;;;;;;;;;;;;;;;-4.52;81.52;103033.38;5033977;28;19920;-75
2024/01/10 05:38:52;;;;;;;;;;;;;;;-4.60;81.13;103034.63;5034051;28;20116;-75
2024/01/10 05:41:17;;;;;;;;;;;;;;;-4.55;81.51;103035.75;5042792;28;19984;-75
2024/01/10 05:43:43;;;;;;;;;;;;;;;-4.65;81.17;103034.38;5035078;28;19952;-75
2024/01/10 05:46:09;;;;;;;;;;;;;;;-4.62;81.64;103036.19;5033477;28;19978;-75
2024/01/10 05:48:35;;;;;;;;;;;;;;;-4.53;82.13;103040.97;5034605;28;19916;-75
2024/01/10 05:51:00;;;;;;;;;;;;;;;-4.56;81.95;103039.13;5033640;28;19917;-75
2024/01/10 05:53:26;;;;;;;;;;;;;;;-4.58;82.20;103035.59;5035080;28;19972;-75
2024/01/10 05:55:51;;;;;;;;;;;;;;;-4.47;82.52;103034.53;5034318;28;20127;-75
2024/01/10 05:58:16;;;;;;;;;;;;;;;-4.46;82.16;103036.31;5034496;28;19920;-75
2024/01/10 06:00:41;;;;;;;;;;;;;;;-4.49;81.83;103030.13;5028470;28;19917;-75
2024/01/10 06:03:07;;;;;;;;;;;;;;;-4.61;81.82;103034.56;5017575;28;19984;-75
2024/01/10 06:05:32;;;;;;;;;;;;;;;-4.61;81.90;103039.66;5033712;28;19909;-75
2024/01/10 06:07:58;;;;;;;;;;;;;;;-4.54;82.30;103037.53;5033723;28;19917;-75
2024/01/10 06:10:23;;;;;;;;;;;;;;;-4.44;82.67;103038.91;5033841;28;20128;-75
2024/01/10 06:12:48;;;;;;;;;;;;;;;-4.36;83.02;103030.00;5014979;28;20238;-75
2024/01/10 06:15:14;;;;;;;;;;;;;;;-4.36;83.10;103027.44;5020436;28;19983;-75
2024/01/10 06:17:39;;;;;;;;;;;;;;;-4.47;83.14;103031.09;5018592;28;19922;-76
2024/01/10 06:20:06;;;;;;;;;;;;;;;-4.52;83.02;103033.38;5024643;28;19917;-75
2024/01/10 06:22:31;;;;;;;;;;;;;;;-4.53;82.63;103028.16;5033550;28;20045;-75
2024/01/10 06:24:57;;;;;;;;;;;;;;;-4.49;82.35;103032.69;5028472;28;19916;-75
2024/01/10 06:27:22;;;;;;;;;;;;;;;-4.49;82.49;103028.44;5028109;28;19917;-75
2024/01/10 06:29:47;;;;;;;;;;;;;;;-4.47;82.82;103021.75;5031792;28;19983;-75
2024/01/10 06:32:14;;;;;;;;;;;;;;;-4.46;82.46;103026.06;5038967;28;19917;-75
2024/01/10 06:34:39;;;;;;;;;;;;;;;-4.32;83.21;103021.69;5037678;28;19936;-75
2024/01/10 06:37:07;;;;;;;;;;;;;;;-4.31;82.78;103020.00;5035228;28;19917;-75
2024/01/10 06:39:32;;;;;;;;;;;;;;;-4.48;81.73;103024.19;5036641;28;19935;-75
2024/01/10 06:41:58;;;;;;;;;;;;;;;-4.35;82.75;103026.63;5037114;28;20179;-75
2024/01/10 06:44:23;;;;;;;;;;;;;;;-4.39;82.24;103028.97;5037017;28;19963;-75
2024/01/10 06:46:48;;;;;;;;;;;;;;;-4.56;81.60;103028.03;5048944;28;19920;-76
2024/01/10 06:49:13;;;;;;;;;;;;;;;-4.57;81.70;103028.81;5044976;28;19992;-75
2024/01/10 06:51:39;;;;;;;;;;;;;;;-4.59;81.90;103030.41;5043941;28;19920;-75
2024/01/10 06:54:05;;;;;;;;;;;;;;;-4.68;81.83;103041.84;5040375;28;19917;-75
2024/01/10 06:56:31;;;;;;;;;;;;;;;-4.61;82.00;103040.53;5032331;28;20304;-75
2024/01/10 06:58:56;;;;;;;;;;;;;;;-4.45;82.63;103039.72;5019763;28;19940;-75
2024/01/10 07:01:22;;;;;;;;;;;;;;;-4.46;83.15;103046.53;5033021;28;19974;-75
2024/01/10 07:03:47;;;;;;;;;;;;;;;-4.50;83.23;103043.69;5037015;28;19917;-75
2024/01/10 07:06:14;;;;;;;;;;;;;;;-4.56;82.77;103051.91;5036736;28;20288;-75
2024/01/10 07:08:40;;;;;;;;;;;;;;;-4.57;82.67;103042.47;5036757;28;19921;-75
2024/01/10 07:11:05;;;;;;;;;;;;;;;-4.59;82.64;103038.06;5037252;28;19983;-75
2024/01/10 07:13:31;;;;;;;;;;;;;;;-4.55;82.86;103045.97;5033379;28;19924;-76
2024/01/10 07:15:56;;;;;;;;;;;;;;;-4.51;82.92;103040.28;5036452;28;19928;-75
2024/01/10 07:18:21;;;;;;;;;;;;;;;-4.57;82.85;103032.22;5035916;28;19992;-75
2024/01/10 07:20:47;;;;;;;;;;;;;;;-4.62;82.52;103038.75;5035783;28;19932;-75
2024/01/10 07:23:12;;;;;;;;;;;;;;;-4.54;82.80;103047.75;5021962;28;19909;-75
2024/01/10 07:25:37;;;;;;;;;;;;;;;-4.56;82.96;103041.69;5024568;28;19952;-75
2024/01/10 07:28:03;;;;;;;;;;;;;;;-4.66;82.39;103036.81;5035242;28;19912;-75
2024/01/10 07:30:32;;;;;;;;;;;;;;;-4.67;82.05;103040.19;5025027;28;19959;-75
2024/01/10 07:32:58;;;;;;;;;;;;;;;-4.71;82.18;103048.47;5032305;28;19916;-75
2024/01/10 07:35:23;;;;;;;;;;;;;;;-4.65;82.31;103046.28;5035548;28;20020;-75
2024/01/10 07:37:49;;;;;;;;;;;;;;;-4.72;82.18;103051.84;5036198;28;19948;-75
2024/01/10 07:40:14;;;;;;;;;;;;;;;-4.76;82.28;103042.22;5033613;28;19927;-75
2024/01/10 07:42:39;;;;;;;;;;;;;;;-4.72;82.46;103049.28;5024807;28;19952;-75
2024/01/10 07:45:05;;;;;;;;;;;;;;;-4.74;82.41;103045.75;5026372;28;19925;-75
2024/01/10 07:47:34;;;;;;;;;;;;;;;-4.71;82.81;103043.34;5024870;28;20148;-75
2024/01/10 07:49:59;;;;;;;;;;;;;;;-4.70;82.94;103045.13;5019638;28;20209;-75
2024/01/10 07:52:24;;;;;;;;;;;;;;;-4.69;83.14;103042.66;5036845;28;19954;-75
2024/01/10 07:54:49;;;;;;;;;;;;;;;-4.63;83.21;103044.69;5036043;28;20257;-75
2024/01/10 07:57:18;;;;;;;;;;;;;;;-4.62;83.20;103048.97;5036796;28;19909;-75
2024/01/10 07:59:43;;;;;;;;;;;;;;;-4.67;82.67;103042.75;5036556;28;19956;-75
2024/01/10 08:02:10;;;;;;;;;;;;;;;-4.65;83.08;103053.94;5036082;28;20124;-75
2024/01/10 08:04:35;;;;;;;;;;;;;;;-4.68;82.76;103051.19;5031996;28;20208;-75
2024/01/10 08:07:00;;;;;;;;;;;;;;;-4.69;82.21;103054.56;5035495;28;19967;-75
2024/01/10 08:09:26;;;;;;;;;;;;;;;-4.69;82.37;103060.56;5028939;28;20144;-75
2024/01/10 08:11:51;;;;;;;;;;;;;;;-4.66;82.58;103053.06;5028778;28;19917;-75
2024/01/10 08:14:16;;;;;;;;;;;;;;;-4.63;82.91;103054.91;5027623;28;19939;-75
2024/01/10 08:16:42;;;;;;;;;;;;;;;-4.53;82.63;103062.31;5027720;28;19921;-75
2024/01/10 08:19:07;;;;;;;;;;;;;;;-4.49;82.35;103061.69;5024833;28;19992;-75
2024/01/10 08:21:33;;;;;;;;;;;;;;;-4.52;82.35;103058.09;5027934;28;19917;-75
2024/01/10 08:23:58;;;;;;;;;;;;;;;-4.52;81.72;103063.19;5025433;28;19980;-75
2024/01/10 08:26:23;;;;;;;;;;;;;;;-4.55;81.52;103068.13;5027707;28;19992;-75
2024/01/10 08:28:48;;;;;;;;;;;;;;;-4.48;81.60;103063.44;5028900;28;19970;-75
2024/01/10 08:31:16;;;;;;;;;;;;;;;-4.36;81.67;103058.16;5027550;28;19983;-75
2024/01/10 08:33:41;;;;;;;;;;;;;;;-4.45;81.17;103050.84;5026638;28;19922;-75
2024/01/10 08:36:07;;;;;;;;;;;;;;;-4.50;80.72;103048.81;5055345;28;19921;-75
2024/01/10 08:38:32;;;;;;;;;;;;;;;-4.46;80.55;103061.88;5024668;28;19921;-75
2024/01/10 08:40:57;;;;;;;;;;;;;;;-4.44;79.93;103042.38;5025228;28;19968;-75
2024/01/10 08:43:22;;;;;;;;;;;;;;;-4.32;80.22;103041.28;5027517;28;19913;-75
2024/01/10 08:45:48;;;;;;;;;;;;;;;-4.26;80.62;103039.06;5034753;28;20439;-75
2024/01/10 08:48:13;;;;;;;;;;;;;;;-4.17;80.04;103038.69;5035361;28;20139;-75
2024/01/10 08:50:38;;;;;;;;;;;;;;;-4.11;81.06;103034.81;5021298;28;19983;-75
2024/01/10 08:53:05;;;;;;;;;;;;;;;-4.35;77.56;103030.88;5025016;28;19925;-75
2024/01/10 08:55:31;;;;;;;;;;;;;;;-4.37;77.23;103027.38;5032923;28;20205;-75
2024/01/10 08:57:56;;;;;;;;;;;;;;;-4.39;77.05;103021.28;5029516;28;19921;-75
2024/01/10 09:00:21;;;;;;;;;;;;;;;-4.45;76.71;103026.94;5033514;28;19917;-75
2024/01/10 09:02:47;;;;;;;;;;;;;;;-4.40;75.81;103030.66;5033631;28;19963;-75
2024/01/10 09:05:12;;;;;;;;;;;;;;;-4.43;75.86;103025.34;5033548;28;20182;-75
2024/01/10 09:07:37;;;;;;;;;;;;;;;-4.23;77.43;103030.69;5034466;28;19921;-75
2024/01/10 09:10:05;;;;;;;;;;;;;;;-4.14;77.54;103032.06;5034588;28;19960;-75
2024/01/10 09:12:30;;;;;;;;;;;;;;;-4.10;76.15;103030.56;5031056;28;19986;-75
2024/01/10 09:14:55;;;;;;;;;;;;;;;-4.07;76.11;103034.19;5017992;28;20204;-75
2024/01/10 09:17:21;;;;;;;;;;;;;;;-4.10;74.47;103038.25;5024120;28;20430;-75
2024/01/10 09:19:46;;;;;;;;;;;;;;;-4.06;74.26;103041.06;5030167;28;19917;-75
2024/01/10 09:22:11;;;;;;;;;;;;;;;-4.07;74.18;103040.97;5028611;28;19924;-75
2024/01/10 09:24:36;;;;;;;;;;;;;;;-4.06;73.69;103043.63;5029139;28;19985;-75
2024/01/10 09:27:02;;;;;;;;;;;;;;;-4.01;74.02;103048.97;5023090;28;19917;-75
2024/01/10 09:29:27;;;;;;;;;;;;;;;-4.03;73.47;103035.22;5037626;28;20235;-75
2024/01/10 09:31:52;;;;;;;;;;;;;;;-3.98;73.51;103033.81;5044912;28;19917;-75
2024/01/10 09:34:17;;;;;;;;;;;;;;;-4.00;72.77;103029.38;5046677;28;19921;-75
2024/01/10 09:36:43;;;;;;;;;;;;;;;-4.01;72.39;103037.88;5035914;28;20212;-75
2024/01/10 09:39:13;;;;;;;;;;;;;;;-3.97;72.69;103043.22;5037388;28;20867;-75
2024/01/10 09:41:43;;;;;;;;;;;;;;;-3.98;71.53;103040.56;5036387;28;20043;-75
2024/01/10 09:44:08;;;;;;;;;;;;;;;-3.91;72.14;103048.69;5039820;28;20201;-75
2024/01/10 09:46:34;;;;;;;;;;;;;;;-3.87;71.84;103042.06;5037824;28;20141;-75
2024/01/10 09:48:59;;;;;;;;;;;;;;;-3.87;71.23;103042.06;5033531;28;20007;-75
2024/01/10 09:51:24;;;;;;;;;;;;;;;-3.86;71.09;103042.16;5029380;28;19917;-75
2024/01/10 09:53:51;;;;;;;;;;;;;;;-3.81;71.31;103037.25;5034356;28;20232;-75
2024/01/10 09:56:17;;;;;;;;;;;;;;;-3.78;70.99;103036.53;5034290;28;19921;-75
2024/01/10 09:58:48;;;;;;;;;;;;;;;-3.69;71.55;103045.59;5031146;28;20099;-75
2024/01/10 10:01:13;;;;;;;;;;;;;;;-3.61;72.08;103050.25;5034884;28;20263;-75
2024/01/10 10:03:41;;;;;;;;;;;;;;;-3.67;70.03;103038.88;5029654;28;19917;-75
2024/01/10 10:06:07;;;;;;;;;;;;;;;-3.62;70.12;103043.34;5028998;28;20240;-75
2024/01/10 10:08:33;;;;;;;;;;;;;;;-3.70;69.68;103035.28;5028720;28;19913;-75
2024/01/10 10:10:58;;;;;;;;;;;;;;;-3.61;70.62;103040.88;5031909;28;19913;-76
2024/01/10 10:13:30;;;;;;;;;;;;;;;-3.61;69.71;103033.19;5033701;28;19917;-76
2024/01/10 10:16:01;;;;;;;;;;;;;;;-3.43;71.79;103032.41;5034925;28;19917;-76
2024/01/10 10:18:31;;;;;;;;;;;;;;;-3.43;70.78;103027.28;5028337;28;19987;-76
2024/01/10 10:21:06;;;;;;;;;;;;;;;-3.40;70.05;103030.91;5032202;28;19923;-75
2024/01/10 10:23:31;;;;;;;;;;;;;;;-3.38;68.55;103031.84;5039753;28;20235;-75
2024/01/10 10:25:57;;;;;;;;;;;;;;;-3.32;69.50;103032.16;5044622;28;19912;-75
2024/01/10 10:28:28;;;;;;;;;;;;;;;-3.24;69.45;103027.41;5039933;28;19948;-75
2024/01/10 10:30:54;;;;;;;;;;;;;;;-3.21;68.03;103026.72;5042792;28;19987;-75
2024/01/10 10:33:19;;;;;;;;;;;;;;;-3.29;66.47;103032.31;5041062;28;20250;-75
2024/01/10 10:35:44;;;;;;;;;;;;;;;-3.22;66.97;103024.94;5038644;28;20321;-75
2024/01/10 10:38:10;;;;;;;;;;;;;;;-3.23;65.99;103030.88;5037342;28;19917;-75
2024/01/10 10:40:35;;;;;;;;;;;;;;;-3.17;65.57;103026.06;5038344;28;19916;-75
2024/01/10 10:43:03;;;;;;;;;;;;;;;-3.12;64.83;103024.59;5036194;28;19917;-75
2024/01/10 10:45:31;;;;;;;;;;;;;;;-3.07;65.11;103033.41;5037088;28;19976;-75
2024/01/10 10:48:01;;;;;;;;;;;;;;;-3.17;63.87;103023.50;5036356;28;19923;-75
2024/01/10 10:50:28;;;;;;;;;;;;;;;-3.08;65.07;103018.81;5036591;28;19940;-75
2024/01/10 10:52:55;;;;;;;;;;;;;;;-3.02;65.90;103019.16;5035813;28;19921;-75
2024/01/10 10:55:20;;;;;;;;;;;;;;;-2.94;65.11;103022.97;5035993;28;20104;-75
2024/01/10 10:57:47;;;;;;;;;;;;;;;-2.88;64.37;103018.94;5039130;28;19927;-75
2024/01/10 11:00:19;;;;;;;;;;;;;;;-2.88;62.17;103024.06;5040640;28;20382;-75
2024/01/10 11:02:45;;;;;;;;;;;;;;;-2.85;61.94;103022.53;5045564;28;19976;-75
2024/01/10 11:05:11;;;;;;;;;;;;;;;-2.84;61.43;103029.41;5044430;28;20267;-75
2024/01/10 11:07:37;;;;;;;;;;;;;;;-2.79;61.77;103030.53;5048742;28;20001;-75
2024/01/10 11:10:04;;;;;;;;;;;;;;;-2.74;62.54;103029.09;5047494;28;20180;-75
2024/01/10 11:12:48;;;;;;;;;;;;;;;-2.76;61.92;103027.25;5049356;28;19963;-75
2024/01/10 11:15:13;;;;;;;;;;;;;;;-2.72;62.00;103024.03;5041641;28;19920;-75
2024/01/10 11:17:57;;;;;;;;;;;;;;;-2.67;63.44;103021.66;5039488;28;20332;-75
2024/01/10 11:20:50;;;;;;;;;;;;;;;-2.64;63.09;103017.56;5033782;28;19917;-75
2024/01/10 11:23:21;;;;;;;;;;;;;;;-2.58;61.60;103007.63;5034916;28;20226;-75
2024/01/10 11:25:46;;;;;;;;;;;;;;;-2.55;61.17;103006.88;5036874;28;19917;-75
2024/01/10 11:28:12;;;;;;;;;;;;;;;-2.52;60.54;103018.16;5036982;28;19924;-75
2024/01/10 11:30:48;;;;;;;;;;;;;;;-2.43;61.61;103011.75;5039922;28;19984;-75
2024/01/10 11:33:21;;;;;;;;;;;;;;;-2.40;61.96;103012.75;5039687;28;20307;-75
2024/01/10 11:36:05;;;;;;;;;;;;;;;-2.44;60.75;103010.84;5040193;28;19920;-75
2024/01/10 11:38:31;;;;;;;;;;;;;;;-2.44;59.77;103015.97;5032716;28;19959;-75
2024/01/10 11:40:56;;;;;;;;;;;;;;;-2.44;60.45;103009.97;5032133;28;19924;-75
2024/01/10 11:43:22;;;;;;;;;;;;;;;-2.34;61.46;103017.31;5036833;28;19927;-75
2024/01/10 11:45:56;;;;;;;;;;;;;;;-2.41;59.77;103011.00;5038123;28;19917;-75
2024/01/10 11:48:27;;;;;;;;;;;;;;;-2.35;60.57;103011.31;5039983;28;19976;-75
2024/01/10 11:50:53;;;;;;;;;;;;;;;-2.30;61.35;103008.94;5039327;28;19917;-75
2024/01/10 11:53:39;;;;;;;;;;;;;;;-2.28;60.43;103002.19;5045402;28;20148;-75
2024/01/10 11:56:11;;;;;;;;;;;;;;;-2.24;60.70;103003.19;5048866;28;20112;-75
2024/01/10 11:58:55;;;;;;;;;;;;;;;-2.19;60.77;102992.34;5047458;28;20275;-75
2024/01/10 12:01:22;;;;;;;;;;;;;;;-2.15;60.42;102990.78;5048640;28;19917;-75
2024/01/10 12:03:47;;;;;;;;;;;;;;;-2.14;60.28;102993.44;5049499;28;20208;-75
2024/01/10 12:06:14;;;;;;;;;;;;;;;-2.08;60.24;103002.25;5049929;28;19916;-75
2024/01/10 12:08:39;;;;;;;;;;;;;;;-2.04;59.59;102999.88;5043376;28;20269;-75
2024/01/10 12:11:05;;;;;;;;;;;;;;;-1.98;59.94;103001.88;5039325;28;19944;-75
2024/01/10 12:13:31;;;;;;;;;;;;;;;-1.98;58.83;102991.59;5046404;28;19917;-75
2024/01/10 12:15:57;;;;;;;;;;;;;;;-2.01;58.84;102994.88;5049810;28;19921;-75
2024/01/10 12:18:23;;;;;;;;;;;;;;;-1.91;60.21;102978.22;5043910;28;20255;-75
2024/01/10 12:20:48;;;;;;;;;;;;;;;-1.89;60.30;102985.97;5048652;28;20286;-75
2024/01/10 12:23:13;;;;;;;;;;;;;;;-1.87;59.91;102976.63;5045228;28;19917;-75
2024/01/10 12:25:38;;;;;;;;;;;;;;;-1.83;59.87;102978.56;5049474;28;20227;-76
2024/01/10 12:28:04;;;;;;;;;;;;;;;-1.79;60.07;102971.03;5048341;28;19917;-76
2024/01/10 12:30:30;;;;;;;;;;;;;;;-1.74;59.34;102973.81;5050689;28;20191;-76